createdAt,value
2023-02-18T00:01:29.654Z,12.15
2023-02-18T00:03:57.677Z,12.15
2023-02-18T00:06:28.261Z,12.13
2023-02-18T00:08:58.706Z,12.13
2023-02-18T00:11:26.036Z,12.14
2023-02-18T00:13:55.512Z,12.14
2023-02-18T00:16:26.395Z,12.15
2023-02-18T00:18:57.149Z,12.16
2023-02-18T00:21:24.443Z,12.18
2023-02-18T00:23:51.615Z,12.20
2023-02-18T00:26:20.118Z,12.23
2023-02-18T00:28:48.837Z,12.22
2023-02-18T00:31:19.415Z,12.24
2023-02-18T00:33:47.954Z,12.29
2023-02-18T00:36:19.015Z,12.31
2023-02-18T00:38:47.643Z,12.35
2023-02-18T00:41:15.612Z,12.40
2023-02-18T00:43:43.769Z,12.44
2023-02-18T00:46:11.994Z,12.46
2023-02-18T00:48:39.430Z,12.49
2023-02-18T00:51:08.606Z,12.52
2023-02-18T00:53:36.382Z,12.57
2023-02-18T00:56:04.643Z,12.61
2023-02-18T00:58:32.011Z,12.64
2023-02-18T01:00:58.932Z,12.66
2023-02-18T01:03:26.561Z,12.69
2023-02-18T01:05:53.914Z,12.74
2023-02-18T01:08:23.162Z,12.78
2023-02-18T01:10:54.664Z,12.80
2023-02-18T01:13:22.119Z,12.79
2023-02-18T01:15:49.532Z,12.81
2023-02-18T01:18:17.308Z,12.82
2023-02-18T01:20:45.344Z,12.83
2023-02-18T01:23:14.046Z,12.85
2023-02-18T01:25:42.808Z,12.89
2023-02-18T01:28:12.260Z,12.91
2023-02-18T01:30:39.629Z,12.93
2023-02-18T01:33:07.115Z,12.94
2023-02-18T01:35:34.775Z,12.91
2023-02-18T01:38:02.598Z,12.87
2023-02-18T01:40:30.282Z,12.84
2023-02-18T01:42:58.561Z,12.83
2023-02-18T01:46:03.929Z,12.75
2023-02-18T01:48:39.636Z,12.76
2023-02-18T01:51:13.517Z,12.75
2023-02-18T01:53:49.926Z,12.76
2023-02-18T01:56:25.572Z,12.77
2023-02-18T01:58:59.818Z,12.80
2023-02-18T02:01:27.854Z,12.82
2023-02-18T02:03:55.778Z,12.82
2023-02-18T02:06:25.094Z,12.83
2023-02-18T02:08:57.394Z,12.84
2023-02-18T02:11:41.326Z,12.84
2023-02-18T02:14:25.309Z,12.86
2023-02-18T02:17:03.378Z,12.86
2023-02-18T02:20:24.977Z,12.83
2023-02-18T02:23:30.351Z,12.86
2023-02-18T02:26:43.968Z,12.88
2023-02-18T02:29:51.556Z,12.90
2023-02-18T02:33:00.014Z,12.89
2023-02-18T02:35:34.474Z,12.94
2023-02-18T02:38:08.208Z,12.96
2023-02-18T02:40:46.236Z,13.00
2023-02-18T02:43:25.595Z,13.00
2023-02-18T02:46:00.443Z,13.01
2023-02-18T02:48:42.772Z,13.02
2023-02-18T02:51:18.541Z,13.05
2023-02-18T02:53:45.439Z,13.08
2023-02-18T02:56:17.954Z,13.08
2023-02-18T02:58:50.640Z,13.10
2023-02-18T03:01:35.423Z,13.08
2023-02-18T03:04:27.690Z,13.08
2023-02-18T03:07:39.502Z,13.08
2023-02-18T03:10:30.589Z,13.11
2023-02-18T03:13:09.842Z,13.14
2023-02-18T03:15:46.394Z,13.16
2023-02-18T03:18:23.071Z,13.19
2023-02-18T03:20:57.066Z,13.21
2023-02-18T03:23:32.629Z,13.23
2023-02-18T03:26:03.417Z,13.26
2023-02-18T03:28:32.870Z,13.26
2023-02-18T03:31:06.975Z,13.29
2023-02-18T03:33:41.957Z,13.30
2023-02-18T03:36:10.248Z,13.34
2023-02-18T03:38:45.788Z,13.35
2023-02-18T03:41:13.009Z,13.37
2023-02-18T03:43:41.172Z,13.37
2023-02-18T03:46:08.619Z,13.39
2023-02-18T03:48:35.748Z,13.41
2023-02-18T03:51:02.739Z,13.43
2023-02-18T03:53:29.605Z,13.47
2023-02-18T03:55:57.952Z,13.49
2023-02-18T03:58:24.907Z,13.50
2023-02-18T04:00:51.868Z,13.52
2023-02-18T04:03:18.896Z,13.53
2023-02-18T04:05:45.854Z,13.52
2023-02-18T04:08:12.738Z,13.54
2023-02-18T04:10:39.696Z,13.56
2023-02-18T04:13:08.160Z,13.58
2023-02-18T04:15:35.214Z,13.59
2023-02-18T04:18:02.257Z,13.61
2023-02-18T04:20:29.717Z,13.63
2023-02-18T04:22:56.633Z,13.55
2023-02-18T04:25:23.548Z,13.53
2023-02-18T04:27:50.494Z,13.43
2023-02-18T04:30:19.333Z,13.38
2023-02-18T04:32:46.500Z,13.35
2023-02-18T04:35:13.466Z,13.29
2023-02-18T04:37:40.516Z,13.28
2023-02-18T04:40:09.013Z,13.30
2023-02-18T04:42:36.355Z,13.30
2023-02-18T04:45:03.776Z,13.23
2023-02-18T04:47:32.155Z,13.17
2023-02-18T04:49:59.258Z,13.14
2023-02-18T04:52:26.349Z,13.14
2023-02-18T04:54:53.321Z,13.13
2023-02-18T04:57:20.240Z,13.13
2023-02-18T04:59:47.112Z,13.12
2023-02-18T05:02:14.035Z,13.17
2023-02-18T05:04:42.268Z,13.18
2023-02-18T05:07:09.200Z,13.20
2023-02-18T05:09:36.211Z,13.22
2023-02-18T05:12:03.633Z,13.24
2023-02-18T05:14:30.550Z,13.26
2023-02-18T05:16:57.502Z,13.27
2023-02-18T05:19:24.560Z,13.25
2023-02-18T05:21:52.904Z,13.24
2023-02-18T05:24:19.794Z,13.22
2023-02-18T05:26:46.691Z,13.20
2023-02-18T05:29:13.623Z,13.17
2023-02-18T05:31:40.765Z,13.16
2023-02-18T05:34:07.920Z,13.15
2023-02-18T05:36:35.070Z,13.13
2023-02-18T05:39:03.891Z,13.14
2023-02-18T05:41:31.043Z,13.14
2023-02-18T05:44:16.513Z,13.15
2023-02-18T05:46:43.471Z,13.08
2023-02-18T05:49:10.502Z,12.99
2023-02-18T05:51:37.524Z,12.89
2023-02-18T05:54:06.088Z,12.80
2023-02-18T05:56:33.053Z,12.72
2023-02-18T05:59:00.472Z,12.72
2023-02-18T06:01:41.805Z,12.67
2023-02-18T06:04:09.116Z,12.61
2023-02-18T06:06:36.250Z,12.61
2023-02-18T06:09:06.454Z,12.59
2023-02-18T06:11:34.440Z,12.58
2023-02-18T06:14:01.674Z,12.55
2023-02-18T06:16:29.346Z,12.55
2023-02-18T06:18:56.368Z,12.56
2023-02-18T06:21:23.937Z,12.59
2023-02-18T06:23:51.121Z,12.58
2023-02-18T06:26:19.706Z,12.55
2023-02-18T06:28:46.627Z,12.56
2023-02-18T06:31:13.826Z,12.60
2023-02-18T06:33:40.852Z,12.62
2023-02-18T06:36:11.955Z,12.68
2023-02-18T06:38:41.001Z,12.74
2023-02-18T06:41:09.356Z,12.82
2023-02-18T06:43:38.357Z,12.90
2023-02-18T06:46:06.131Z,12.96
2023-02-18T06:48:34.020Z,13.02
2023-02-18T06:51:01.037Z,13.08
2023-02-18T06:53:28.148Z,13.09
2023-02-18T06:55:55.096Z,13.08
2023-02-18T06:58:23.218Z,13.09
2023-02-18T07:00:51.688Z,13.07
2023-02-18T07:03:18.802Z,13.05
2023-02-18T07:05:45.766Z,13.05
2023-02-18T07:08:13.181Z,12.99
2023-02-18T07:10:40.426Z,12.93
2023-02-18T07:13:07.384Z,12.90
2023-02-18T07:15:34.350Z,12.87
2023-02-18T07:18:02.771Z,12.85
2023-02-18T07:20:30.174Z,12.86
2023-02-18T07:22:57.160Z,12.85
2023-02-18T07:25:24.557Z,12.87
2023-02-18T07:27:51.856Z,12.88
2023-02-18T07:30:19.480Z,12.83
2023-02-18T07:32:46.379Z,12.78
2023-02-18T07:35:17.282Z,12.74
2023-02-18T07:37:45.571Z,12.69
2023-02-18T07:40:15.166Z,12.65
2023-02-18T07:42:42.196Z,12.62
2023-02-18T07:45:10.452Z,12.62
2023-02-18T07:47:37.578Z,12.63
2023-02-18T07:50:06.444Z,12.66
2023-02-18T07:52:34.729Z,12.66
2023-02-18T07:55:01.878Z,12.66
2023-02-18T07:57:28.819Z,12.66
2023-02-18T07:59:55.759Z,12.68
2023-02-18T08:02:24.814Z,12.62
2023-02-18T08:04:52.291Z,12.63
2023-02-18T08:07:22.789Z,12.69
2023-02-18T08:09:51.197Z,12.72
2023-02-18T08:12:18.493Z,12.75
2023-02-18T08:14:45.854Z,12.82
2023-02-18T08:17:12.842Z,12.84
2023-02-18T08:19:39.832Z,12.94
2023-02-18T08:22:06.886Z,13.09
2023-02-18T08:24:33.785Z,13.25
2023-02-18T08:27:02.141Z,13.32
2023-02-18T08:29:30.111Z,13.48
2023-02-18T08:31:58.032Z,13.66
2023-02-18T08:34:25.773Z,13.81
2023-02-18T08:36:52.709Z,13.85
2023-02-18T08:39:19.694Z,13.97
2023-02-18T08:41:46.670Z,14.07
2023-02-18T08:44:14.962Z,14.21
2023-02-18T08:46:41.899Z,14.34
2023-02-18T08:49:08.875Z,14.44
2023-02-18T08:51:36.200Z,14.54
2023-02-18T08:54:03.584Z,14.61
2023-02-18T08:56:32.350Z,14.73
2023-02-18T08:58:59.604Z,14.81
2023-02-18T09:01:28.268Z,14.88
2023-02-18T09:03:55.319Z,14.88
2023-02-18T09:06:22.390Z,14.91
2023-02-18T09:08:49.435Z,14.95
2023-02-18T09:11:18.480Z,15.02
2023-02-18T09:13:45.976Z,15.08
2023-02-18T09:16:18.278Z,15.13
2023-02-18T09:18:48.083Z,15.21
2023-02-18T09:21:18.927Z,15.27
2023-02-18T09:23:46.255Z,15.32
2023-02-18T09:26:24.883Z,15.35
2023-02-18T09:28:54.245Z,15.41
2023-02-18T09:31:24.504Z,15.43
2023-02-18T09:33:59.516Z,15.44
2023-02-18T09:36:27.597Z,15.48
2023-02-18T09:38:55.296Z,15.49
2023-02-18T09:41:35.000Z,15.49
2023-02-18T09:44:09.548Z,15.52
2023-02-18T09:46:40.620Z,15.52
2023-02-18T09:49:18.734Z,15.53
2023-02-18T09:51:46.730Z,15.56
2023-02-18T09:54:18.828Z,15.55
2023-02-18T09:56:47.735Z,15.54
2023-02-18T09:59:19.112Z,15.52
2023-02-18T10:01:51.936Z,15.52
2023-02-18T10:04:27.744Z,15.50
2023-02-18T10:06:55.101Z,15.43
2023-02-18T10:09:28.269Z,15.44
2023-02-18T10:12:02.471Z,15.47
2023-02-18T10:14:29.913Z,15.51
2023-02-18T10:17:00.153Z,15.51
2023-02-18T10:19:36.087Z,15.53
2023-02-18T10:22:06.697Z,15.49
2023-02-18T10:24:39.036Z,15.46
2023-02-18T10:27:09.009Z,15.44
2023-02-18T10:29:36.705Z,15.42
2023-02-18T10:32:16.629Z,15.41
2023-02-18T10:34:51.886Z,15.39
2023-02-18T10:37:46.539Z,15.33
2023-02-18T10:40:23.619Z,15.36
2023-02-18T10:43:07.025Z,15.33
2023-02-18T10:45:45.780Z,15.32
2023-02-18T10:48:45.518Z,15.33
2023-02-18T10:51:19.302Z,15.35
2023-02-18T10:53:49.431Z,15.35
2023-02-18T10:56:38.855Z,15.32
2023-02-18T10:59:13.581Z,15.33
2023-02-18T11:01:43.519Z,15.40
2023-02-18T11:04:18.107Z,15.39
2023-02-18T11:06:48.993Z,15.46
2023-02-18T11:09:31.849Z,15.48
2023-02-18T11:12:09.202Z,15.53
2023-02-18T11:14:43.332Z,15.49
2023-02-18T11:17:25.881Z,15.50
2023-02-18T11:19:57.557Z,15.56
2023-02-18T11:22:32.967Z,15.56
2023-02-18T11:25:02.622Z,15.55
2023-02-18T11:27:39.378Z,15.54
2023-02-18T11:30:19.588Z,15.54
2023-02-18T11:32:49.858Z,15.55
2023-02-18T11:35:22.330Z,15.54
2023-02-18T11:37:51.825Z,15.50
2023-02-18T11:40:27.524Z,15.50
2023-02-18T11:43:06.046Z,15.46
2023-02-18T11:45:35.279Z,15.50
2023-02-18T11:48:08.672Z,15.52
2023-02-18T11:50:36.348Z,15.56
2023-02-18T11:53:28.939Z,15.49
2023-02-18T11:56:00.761Z,15.51
2023-02-18T11:58:40.997Z,15.48
2023-02-18T12:01:18.025Z,15.47
2023-02-18T12:03:53.829Z,15.48
2023-02-18T12:06:28.331Z,15.50
2023-02-18T12:09:05.557Z,15.49
2023-02-18T12:11:41.297Z,15.53
2023-02-18T12:14:17.511Z,15.58
2023-02-18T12:17:06.341Z,15.62
2023-02-18T12:19:53.940Z,15.65
2023-02-18T12:22:35.860Z,15.71
2023-02-18T12:25:23.699Z,15.76
2023-02-18T12:28:12.050Z,15.78
2023-02-18T12:31:10.421Z,15.80
2023-02-18T12:34:01.869Z,15.83
2023-02-18T12:36:51.796Z,15.85
2023-02-18T12:39:45.234Z,15.85
2023-02-18T12:42:42.103Z,15.82
2023-02-18T12:45:37.672Z,15.78
2023-02-18T12:48:52.926Z,15.76
2023-02-18T12:51:36.271Z,15.77
2023-02-18T12:54:27.660Z,15.76
2023-02-18T12:57:16.073Z,15.76
2023-02-18T13:00:22.633Z,15.74
2023-02-18T13:03:27.530Z,15.74
2023-02-18T13:06:07.264Z,15.77
2023-02-18T13:08:54.728Z,15.79
2023-02-18T13:11:38.998Z,15.83
2023-02-18T13:14:16.199Z,15.86
2023-02-18T13:16:50.930Z,15.93
2023-02-18T13:19:24.397Z,15.97
2023-02-18T13:21:58.334Z,16.03
2023-02-18T13:24:34.105Z,16.11
2023-02-18T13:27:15.883Z,16.18
2023-02-18T13:30:08.260Z,16.20
2023-02-18T13:32:48.416Z,16.22
2023-02-18T13:35:26.037Z,16.26
2023-02-18T13:38:24.074Z,16.30
2023-02-18T13:40:51.870Z,16.35
2023-02-18T13:43:30.076Z,16.32
2023-02-18T13:46:10.365Z,16.33
2023-02-18T13:48:46.545Z,16.33
2023-02-18T13:51:18.092Z,16.35
2023-02-18T13:53:52.445Z,16.36
2023-02-18T13:56:28.551Z,16.34
2023-02-18T13:59:02.849Z,16.35
2023-02-18T14:01:41.487Z,16.35
2023-02-18T14:04:54.482Z,16.31
2023-02-18T14:07:49.054Z,16.31
2023-02-18T14:10:35.313Z,16.28
2023-02-18T14:13:24.655Z,16.28
2023-02-18T14:16:01.313Z,16.26
2023-02-18T14:18:52.602Z,16.28
2023-02-18T14:21:42.117Z,16.23
2023-02-18T14:24:12.273Z,16.24
2023-02-18T14:26:49.655Z,16.21
2023-02-18T14:29:28.786Z,16.19
2023-02-18T14:32:01.674Z,16.19
2023-02-18T14:35:12.937Z,16.13
2023-02-18T14:38:27.848Z,16.16
2023-02-18T14:41:22.409Z,16.16
2023-02-18T14:44:17.630Z,16.15
2023-02-18T14:47:06.183Z,16.17
2023-02-18T14:49:42.780Z,16.19
2023-02-18T14:52:23.217Z,16.23
2023-02-18T14:54:51.878Z,16.30
2023-02-18T14:57:28.679Z,16.37
2023-02-18T15:00:02.195Z,16.43
2023-02-18T15:02:30.967Z,16.46
2023-02-18T15:05:14.609Z,16.43
2023-02-18T15:07:41.552Z,16.45
2023-02-18T15:10:16.148Z,16.42
2023-02-18T15:12:43.299Z,16.42
2023-02-18T15:15:16.056Z,16.40
2023-02-18T15:17:49.436Z,16.38
2023-02-18T15:20:17.662Z,16.38
2023-02-18T15:22:44.914Z,16.36
2023-02-18T15:25:14.737Z,16.34
2023-02-18T15:27:45.784Z,16.35
2023-02-18T15:30:26.953Z,16.33
2023-02-18T15:32:56.602Z,16.34
2023-02-18T15:35:29.134Z,16.33
2023-02-18T15:37:59.556Z,16.32
2023-02-18T15:40:32.191Z,16.31
2023-02-18T15:43:03.934Z,16.32
2023-02-18T15:45:35.559Z,16.32
2023-02-18T15:48:04.679Z,16.30
2023-02-18T15:50:36.100Z,16.25
2023-02-18T15:53:07.506Z,16.24
2023-02-18T15:55:40.323Z,16.23
2023-02-18T15:58:15.257Z,16.20
2023-02-18T16:00:50.003Z,16.16
2023-02-18T16:03:23.203Z,16.12
2023-02-18T16:06:07.031Z,16.08
2023-02-18T16:08:34.137Z,16.04
2023-02-18T16:11:07.430Z,15.99
2023-02-18T16:13:37.080Z,15.96
2023-02-18T16:16:05.680Z,15.93
2023-02-18T16:18:39.204Z,15.86
2023-02-18T16:21:24.428Z,15.81
2023-02-18T16:23:57.793Z,15.81
2023-02-18T16:26:31.226Z,15.76
2023-02-18T16:29:14.114Z,15.69
2023-02-18T16:31:41.766Z,15.68
2023-02-18T16:34:08.993Z,15.63
2023-02-18T16:36:35.921Z,15.58
2023-02-18T16:39:03.465Z,15.53
2023-02-18T16:41:31.790Z,15.50
2023-02-18T16:43:58.897Z,15.46
2023-02-18T16:46:25.947Z,15.43
2023-02-18T16:48:55.773Z,15.40
2023-02-18T16:51:29.600Z,15.38
2023-02-18T16:53:56.899Z,15.37
2023-02-18T16:56:26.929Z,15.38
2023-02-18T16:58:55.195Z,15.39
2023-02-18T17:01:27.606Z,15.38
2023-02-18T17:03:55.501Z,15.37
2023-02-18T17:06:22.964Z,15.33
2023-02-18T17:08:50.593Z,15.26
2023-02-18T17:11:25.772Z,15.18
2023-02-18T17:13:55.634Z,15.14
2023-02-18T17:16:22.906Z,15.10
2023-02-18T17:18:50.142Z,15.06
2023-02-18T17:21:20.087Z,15.03
2023-02-18T17:23:48.804Z,15.02
2023-02-18T17:26:19.810Z,15.01
2023-02-18T17:28:47.482Z,15.02
2023-02-18T17:31:20.527Z,14.98
2023-02-18T17:33:47.818Z,14.98
2023-02-18T17:36:14.914Z,14.98
2023-02-18T17:38:42.172Z,14.99
2023-02-18T17:41:12.839Z,14.98
2023-02-18T17:43:40.501Z,14.96
2023-02-18T17:46:13.318Z,14.93
2023-02-18T17:48:43.161Z,14.93
2023-02-18T17:51:24.169Z,14.93
2023-02-18T17:53:51.348Z,14.98
2023-02-18T17:56:18.613Z,14.98
2023-02-18T17:58:46.417Z,14.98
2023-02-18T18:01:13.483Z,14.98
2023-02-18T18:03:41.718Z,14.95
2023-02-18T18:06:16.417Z,14.93
2023-02-18T18:08:43.914Z,14.95
2023-02-18T18:11:16.580Z,14.94
2023-02-18T18:13:45.630Z,14.95
2023-02-18T18:16:16.609Z,14.93
2023-02-18T18:18:45.416Z,14.95
2023-02-18T18:21:21.577Z,14.97
2023-02-18T18:23:49.848Z,14.99
2023-02-18T18:26:17.164Z,15.04
2023-02-18T18:28:44.294Z,15.04
2023-02-18T18:31:15.583Z,15.03
2023-02-18T18:33:48.687Z,15.00
2023-02-18T18:36:16.563Z,14.96
2023-02-18T18:38:43.634Z,14.95
2023-02-18T18:41:14.797Z,14.93
2023-02-18T18:43:41.767Z,14.93
2023-02-18T18:46:08.869Z,14.91
2023-02-18T18:48:35.883Z,14.91
2023-02-18T18:51:05.574Z,14.89
2023-02-18T18:53:35.555Z,14.90
2023-02-18T18:56:06.354Z,14.88
2023-02-18T18:58:33.879Z,14.87
2023-02-18T19:01:05.454Z,14.88
2023-02-18T19:03:38.177Z,14.89
2023-02-18T19:06:06.720Z,14.90
2023-02-18T19:08:34.145Z,14.89
2023-02-18T19:11:03.299Z,14.88
2023-02-18T19:13:33.683Z,14.85
2023-02-18T19:16:06.202Z,14.81
2023-02-18T19:18:33.639Z,14.77
2023-02-18T19:21:04.690Z,14.72
2023-02-18T19:23:34.019Z,14.68
2023-02-18T19:26:01.112Z,14.64
2023-02-18T19:28:28.342Z,14.59
2023-02-18T19:30:55.498Z,14.55
2023-02-18T19:33:22.744Z,14.53
2023-02-18T19:35:49.732Z,14.51
2023-02-18T19:38:18.226Z,14.51
2023-02-18T19:40:46.747Z,14.50
2023-02-18T19:43:14.233Z,14.48
2023-02-18T19:45:43.467Z,14.48
2023-02-18T19:48:12.025Z,14.50
2023-02-18T19:50:41.725Z,14.47
2023-02-18T19:53:09.916Z,14.47
2023-02-18T19:55:37.134Z,14.45
2023-02-18T19:58:05.880Z,14.47
2023-02-18T20:00:32.955Z,14.45
2023-02-18T20:02:59.901Z,14.47
2023-02-18T20:05:27.309Z,14.48
2023-02-18T20:07:54.242Z,14.43
2023-02-18T20:10:22.417Z,14.40
2023-02-18T20:12:52.845Z,14.36
2023-02-18T20:15:22.311Z,14.34
2023-02-18T20:17:49.798Z,14.31
2023-02-18T20:20:17.573Z,14.30
2023-02-18T20:22:45.065Z,14.30
2023-02-18T20:25:12.038Z,14.30
2023-02-18T20:27:45.276Z,14.27
2023-02-18T20:30:22.968Z,14.26
2023-02-18T20:32:49.984Z,14.26
2023-02-18T20:35:16.992Z,14.29
2023-02-18T20:37:43.900Z,14.28
2023-02-18T20:40:11.209Z,14.30
2023-02-18T20:42:38.824Z,14.31
2023-02-18T20:45:06.476Z,14.32
2023-02-18T20:47:34.945Z,14.31
2023-02-18T20:50:01.839Z,14.30
2023-02-18T20:52:28.851Z,14.28
2023-02-18T20:54:55.769Z,14.25
2023-02-18T20:57:22.901Z,14.25
2023-02-18T20:59:49.820Z,14.25
2023-02-18T21:02:17.550Z,14.23
2023-02-18T21:04:46.050Z,14.23
2023-02-18T21:07:12.968Z,14.22
2023-02-18T21:09:39.907Z,14.19
2023-02-18T21:12:07.043Z,14.15
2023-02-18T21:14:33.965Z,14.15
2023-02-18T21:17:00.943Z,14.13
2023-02-18T21:19:27.994Z,14.09
2023-02-18T21:21:56.884Z,14.07
2023-02-18T21:24:23.818Z,14.05
2023-02-18T21:26:50.812Z,14.02
2023-02-18T21:29:17.770Z,14.00
2023-02-18T21:31:45.011Z,13.99
2023-02-18T21:34:14.948Z,13.97
2023-02-18T21:36:43.093Z,13.94
2023-02-18T21:39:11.842Z,13.90
2023-02-18T21:41:40.958Z,13.89
2023-02-18T21:44:08.329Z,13.87
2023-02-18T21:46:36.553Z,13.84
2023-02-18T21:49:09.747Z,13.84
2023-02-18T21:51:59.472Z,13.83
2023-02-18T21:54:31.290Z,13.81
2023-02-18T21:57:00.914Z,13.79
2023-02-18T21:59:30.227Z,13.76
2023-02-18T22:02:01.838Z,13.72
2023-02-18T22:04:31.611Z,13.67
2023-02-18T22:06:59.042Z,13.63
2023-02-18T22:09:27.605Z,13.60
2023-02-18T22:11:54.565Z,13.58
2023-02-18T22:14:22.098Z,13.54
2023-02-18T22:16:49.202Z,13.51
2023-02-18T22:19:16.224Z,13.48
2023-02-18T22:21:44.217Z,13.44
2023-02-18T22:24:13.597Z,13.41
2023-02-18T22:26:43.817Z,13.41
2023-02-18T22:29:12.128Z,13.39
2023-02-18T22:31:39.669Z,13.38
2023-02-18T22:34:06.796Z,13.36
2023-02-18T22:36:33.982Z,13.36
2023-02-18T22:39:02.686Z,13.36
2023-02-18T22:41:31.707Z,13.39
2023-02-18T22:44:03.598Z,13.40
2023-02-18T22:46:33.028Z,13.43
2023-02-18T22:49:00.825Z,13.45
2023-02-18T22:51:31.287Z,13.45
2023-02-18T22:54:00.417Z,13.44
2023-02-18T22:56:29.246Z,13.42
2023-02-18T22:58:59.963Z,13.44
2023-02-18T23:01:31.020Z,13.42
2023-02-18T23:04:03.770Z,13.43
2023-02-18T23:06:30.799Z,13.47
2023-02-18T23:08:57.955Z,13.51
2023-02-18T23:11:25.510Z,13.53
2023-02-18T23:14:13.293Z,13.53
2023-02-18T23:17:00.815Z,13.43
2023-02-18T23:19:31.312Z,13.29
2023-02-18T23:21:58.481Z,13.24
2023-02-18T23:24:25.515Z,13.18
2023-02-18T23:26:52.816Z,13.09
2023-02-18T23:29:20.364Z,12.98
2023-02-18T23:31:48.779Z,12.88
2023-02-18T23:34:17.217Z,12.85
2023-02-18T23:36:45.871Z,12.82
2023-02-18T23:39:16.849Z,12.78
2023-02-18T23:41:44.194Z,12.75
2023-02-18T23:44:14.389Z,12.72
2023-02-18T23:46:44.412Z,12.71
2023-02-18T23:49:15.457Z,12.69
2023-02-18T23:51:43.074Z,12.71
2023-02-18T23:54:11.017Z,12.74
2023-02-18T23:56:38.067Z,12.73
2023-02-18T23:59:06.328Z,12.74
